createdAt,value
2023-09-21T00:01:54.269Z,4.50
2023-09-21T00:04:28.260Z,4.80
2023-09-21T00:07:01.396Z,4.70
2023-09-21T00:09:33.919Z,4.30
2023-09-21T00:12:06.442Z,5.00
2023-09-21T00:14:38.776Z,4.50
2023-09-21T00:17:11.250Z,4.60
2023-09-21T00:19:43.026Z,4.30
2023-09-21T00:22:15.260Z,4.90
2023-09-21T00:24:48.865Z,4.50
2023-09-21T00:27:23.209Z,4.30
2023-09-21T00:29:55.520Z,4.00
2023-09-21T00:32:28.120Z,4.50
2023-09-21T00:35:00.795Z,3.90
2023-09-21T00:37:37.713Z,4.10
2023-09-21T00:40:22.592Z,4.20
2023-09-21T00:42:54.890Z,4.10
2023-09-21T00:45:26.766Z,4.30
2023-09-21T00:47:59.156Z,4.40
2023-09-21T00:50:31.616Z,4.00
2023-09-21T00:53:05.766Z,4.10
2023-09-21T00:55:41.263Z,4.40
2023-09-21T00:58:13.827Z,4.30
2023-09-21T01:00:47.628Z,3.90
2023-09-21T01:03:22.222Z,4.10
2023-09-21T01:05:55.061Z,4.10
2023-09-21T01:08:30.633Z,3.90
2023-09-21T01:11:09.107Z,4.30
2023-09-21T01:13:42.767Z,4.30
2023-09-21T01:16:17.108Z,4.10
2023-09-21T01:18:54.363Z,3.60
2023-09-21T01:21:36.994Z,4.40
2023-09-21T01:24:12.591Z,4.20
2023-09-21T01:26:44.629Z,4.40
2023-09-21T01:29:17.917Z,4.40
2023-09-21T01:31:50.315Z,4.50
2023-09-21T01:34:22.210Z,3.90
2023-09-21T01:36:56.691Z,4.40
2023-09-21T01:39:28.739Z,3.90
2023-09-21T01:42:00.806Z,4.30
2023-09-21T01:44:35.102Z,4.30
2023-09-21T01:47:13.009Z,4.10
2023-09-21T01:49:45.919Z,4.10
2023-09-21T01:52:19.460Z,4.20
2023-09-21T01:54:52.288Z,4.50
2023-09-21T01:57:24.301Z,3.80
2023-09-21T01:59:57.351Z,4.20
2023-09-21T02:02:29.480Z,4.40
2023-09-21T02:05:01.536Z,4.30
2023-09-21T02:07:33.546Z,4.80
2023-09-21T02:10:11.817Z,4.50
2023-09-21T02:12:52.215Z,4.40
2023-09-21T02:15:24.482Z,4.60
2023-09-21T02:17:58.451Z,4.30
2023-09-21T02:20:32.658Z,4.50
2023-09-21T02:23:05.521Z,4.30
2023-09-21T02:25:40.172Z,4.00
2023-09-21T02:28:13.071Z,4.50
2023-09-21T02:30:48.763Z,4.50
2023-09-21T02:33:21.597Z,4.80
2023-09-21T02:35:53.683Z,4.40
2023-09-21T02:38:26.543Z,4.80
2023-09-21T02:40:58.434Z,4.70
2023-09-21T02:43:30.576Z,4.50
2023-09-21T02:46:03.440Z,4.40
2023-09-21T02:48:36.006Z,4.70
2023-09-21T02:51:07.945Z,4.80
2023-09-21T02:53:40.142Z,5.10
2023-09-21T02:56:12.035Z,5.10
2023-09-21T02:58:44.342Z,5.00
2023-09-21T03:01:19.728Z,4.10
2023-09-21T03:03:51.745Z,5.00
2023-09-21T03:06:24.938Z,4.80
2023-09-21T03:08:57.246Z,4.60
2023-09-21T03:11:29.519Z,5.00
2023-09-21T03:14:04.760Z,5.00
2023-09-21T03:16:39.621Z,5.00
2023-09-21T03:19:13.272Z,4.90
2023-09-21T03:21:46.600Z,5.20
2023-09-21T03:24:19.218Z,5.00
2023-09-21T03:26:51.775Z,5.30
2023-09-21T03:29:24.835Z,5.90
2023-09-21T03:31:56.746Z,5.60
2023-09-21T03:34:28.804Z,5.40
2023-09-21T03:37:02.211Z,5.10
2023-09-21T03:39:34.825Z,5.20
2023-09-21T03:42:07.406Z,5.10
2023-09-21T03:44:39.322Z,5.20
2023-09-21T03:47:15.003Z,5.10
2023-09-21T03:49:46.957Z,5.30
2023-09-21T03:52:19.222Z,5.00
2023-09-21T03:54:53.248Z,5.30
2023-09-21T03:57:29.014Z,5.10
2023-09-21T04:00:00.972Z,5.60
2023-09-21T04:02:33.233Z,4.80
2023-09-21T04:05:08.775Z,5.40
2023-09-21T04:07:40.853Z,5.10
2023-09-21T04:10:13.137Z,5.30
2023-09-21T04:12:45.950Z,5.10
2023-09-21T04:15:19.851Z,4.90
2023-09-21T04:17:52.341Z,5.60
2023-09-21T04:20:24.840Z,5.30
2023-09-21T04:22:56.693Z,5.50
2023-09-21T04:25:31.228Z,5.60
2023-09-21T04:28:03.259Z,5.50
2023-09-21T04:30:36.170Z,5.80
2023-09-21T04:33:09.033Z,5.70
2023-09-21T04:35:41.702Z,5.40
2023-09-21T04:38:14.045Z,5.80
2023-09-21T04:40:50.606Z,5.60
2023-09-21T04:45:54.519Z,5.40
2023-09-21T04:48:26.787Z,5.30
2023-09-21T04:50:59.216Z,5.00
2023-09-21T04:53:31.422Z,5.80
2023-09-21T04:56:03.819Z,5.50
2023-09-21T04:58:36.637Z,5.60
2023-09-21T05:01:12.051Z,5.50
2023-09-21T05:03:44.707Z,5.70
2023-09-21T05:06:19.917Z,5.90
2023-09-21T05:08:52.510Z,5.80
2023-09-21T05:11:24.680Z,5.50
2023-09-21T05:13:56.595Z,6.00
2023-09-21T05:16:28.527Z,5.70
2023-09-21T05:19:00.435Z,5.60
2023-09-21T05:21:32.449Z,5.40
2023-09-21T05:24:04.693Z,5.40
2023-09-21T05:26:39.827Z,5.30
2023-09-21T05:29:14.863Z,5.20
2023-09-21T05:31:46.712Z,5.50
2023-09-21T05:34:18.903Z,5.00
2023-09-21T05:36:52.926Z,5.70
2023-09-21T05:39:24.916Z,5.70
2023-09-21T05:41:56.844Z,6.00
2023-09-21T05:44:29.499Z,6.80
2023-09-21T05:47:01.424Z,6.10
2023-09-21T05:49:35.916Z,5.10
2023-09-21T05:52:13.220Z,5.40
2023-09-21T05:54:45.538Z,5.60
2023-09-21T05:57:17.927Z,5.80
2023-09-21T05:59:51.530Z,5.60
2023-09-21T06:02:23.980Z,5.00
2023-09-21T06:04:55.864Z,5.00
2023-09-21T06:07:28.377Z,4.60
2023-09-21T06:10:00.654Z,4.60
2023-09-21T06:12:32.416Z,4.60
2023-09-21T06:15:07.088Z,4.60
2023-09-21T06:17:41.455Z,4.00
2023-09-21T06:20:16.160Z,4.40
2023-09-21T06:22:48.671Z,4.60
2023-09-21T06:25:21.393Z,4.10
2023-09-21T06:27:53.241Z,4.50
2023-09-21T06:30:25.195Z,4.30
2023-09-21T06:32:57.635Z,4.40
2023-09-21T06:35:29.696Z,4.40
2023-09-21T06:38:01.512Z,3.90
2023-09-21T06:40:38.152Z,4.60
2023-09-21T06:43:10.143Z,4.40
2023-09-21T06:45:43.670Z,4.00
2023-09-21T06:48:15.679Z,4.40
2023-09-21T06:50:48.574Z,4.70
2023-09-21T06:53:20.477Z,4.30
2023-09-21T06:55:52.353Z,4.00
2023-09-21T06:58:24.373Z,4.90
2023-09-21T07:00:56.430Z,4.20
2023-09-21T07:03:28.951Z,4.90
2023-09-21T07:06:01.355Z,4.10
2023-09-21T07:08:33.654Z,4.10
2023-09-21T07:11:07.340Z,4.30
2023-09-21T07:13:39.673Z,4.70
2023-09-21T07:16:13.962Z,4.10
2023-09-21T07:18:47.610Z,4.30
2023-09-21T07:21:19.743Z,4.40
2023-09-21T07:23:51.813Z,4.30
2023-09-21T07:26:24.043Z,4.60
2023-09-21T07:28:59.489Z,4.50
2023-09-21T07:31:34.329Z,4.20
2023-09-21T07:34:07.838Z,4.20
2023-09-21T07:36:40.326Z,4.30
2023-09-21T07:39:13.209Z,4.20
2023-09-21T07:41:48.079Z,4.10
2023-09-21T07:44:21.945Z,4.70
2023-09-21T07:46:54.796Z,4.60
2023-09-21T07:49:29.328Z,3.90
2023-09-21T07:52:01.573Z,3.90
2023-09-21T07:54:34.443Z,4.40
2023-09-21T07:57:07.852Z,4.20
2023-09-21T07:59:39.883Z,4.20
2023-09-21T08:02:11.890Z,4.20
2023-09-21T08:04:44.037Z,3.80
2023-09-21T08:07:17.157Z,4.60
2023-09-21T08:09:49.276Z,4.10
2023-09-21T08:12:21.430Z,4.20
2023-09-21T08:14:53.965Z,4.60
2023-09-21T08:17:26.155Z,3.80
2023-09-21T08:19:59.253Z,4.40
2023-09-21T08:22:31.282Z,4.10
2023-09-21T08:25:04.233Z,4.10
2023-09-21T08:27:36.326Z,4.00
2023-09-21T08:30:10.845Z,3.70
2023-09-21T08:32:48.051Z,3.90
2023-09-21T08:35:20.359Z,4.00
2023-09-21T08:37:52.651Z,4.40
2023-09-21T08:40:26.412Z,4.10
2023-09-21T08:43:00.273Z,4.20
2023-09-21T08:45:34.038Z,3.80
2023-09-21T08:48:07.532Z,4.10
2023-09-21T08:50:41.101Z,3.80
2023-09-21T08:53:20.095Z,3.60
2023-09-21T08:55:53.500Z,4.00
2023-09-21T08:58:27.869Z,3.90
2023-09-21T09:01:00.764Z,3.90
2023-09-21T09:03:33.131Z,3.70
2023-09-21T09:06:05.913Z,3.40
2023-09-21T09:08:37.904Z,3.80
2023-09-21T09:11:09.747Z,3.70
2023-09-21T09:13:42.185Z,3.50
2023-09-21T09:16:14.280Z,4.70
2023-09-21T09:18:48.032Z,4.50
2023-09-21T09:21:21.589Z,4.40
2023-09-21T09:23:53.535Z,4.40
2023-09-21T09:26:26.077Z,4.30
2023-09-21T09:29:06.436Z,4.60
2023-09-21T09:31:41.876Z,4.60
2023-09-21T09:34:18.578Z,4.50
2023-09-21T09:36:53.417Z,4.40
2023-09-21T09:39:25.796Z,4.80
2023-09-21T09:41:58.514Z,4.90
2023-09-21T09:44:35.372Z,4.60
2023-09-21T09:47:11.938Z,4.90
2023-09-21T09:49:49.324Z,4.40
2023-09-21T09:52:24.455Z,4.50
2023-09-21T09:54:57.514Z,4.50
2023-09-21T09:57:30.899Z,4.30
2023-09-21T10:00:06.696Z,4.00
2023-09-21T10:02:41.826Z,4.40
2023-09-21T10:05:14.254Z,4.70
2023-09-21T10:07:47.297Z,4.50
2023-09-21T10:10:21.398Z,3.70
2023-09-21T10:12:56.593Z,4.60
2023-09-21T10:15:31.047Z,4.10
2023-09-21T10:18:03.496Z,4.00
2023-09-21T10:20:38.736Z,4.20
2023-09-21T10:23:12.982Z,3.90
2023-09-21T10:25:50.136Z,3.70
2023-09-21T10:28:40.462Z,4.20
2023-09-21T10:31:26.629Z,4.20
2023-09-21T10:34:17.426Z,4.20
2023-09-21T10:36:53.479Z,3.80
2023-09-21T10:39:27.779Z,4.30
2023-09-21T10:42:16.891Z,4.00
2023-09-21T10:45:04.254Z,4.20
2023-09-21T10:47:43.385Z,3.80
2023-09-21T10:50:17.229Z,3.90
2023-09-21T10:52:52.278Z,3.70
2023-09-21T10:55:24.674Z,3.80
2023-09-21T10:58:01.975Z,4.00
2023-09-21T11:00:34.577Z,4.10
2023-09-21T11:03:07.993Z,3.60
2023-09-21T11:05:40.404Z,3.40
2023-09-21T11:08:13.459Z,3.30
2023-09-21T11:10:45.861Z,4.10
2023-09-21T11:13:19.868Z,3.70
2023-09-21T11:15:55.746Z,4.00
2023-09-21T11:18:30.265Z,3.80
2023-09-21T11:21:02.376Z,3.60
2023-09-21T11:23:37.349Z,3.70
2023-09-21T11:26:12.602Z,3.60
2023-09-21T11:28:47.150Z,4.70
2023-09-21T11:31:19.943Z,3.30
2023-09-21T11:33:52.328Z,3.70
2023-09-21T11:36:25.738Z,3.90
2023-09-21T11:38:57.991Z,3.60
2023-09-21T11:41:30.617Z,4.00
2023-09-21T11:44:05.959Z,4.00
2023-09-21T11:46:38.677Z,4.10
2023-09-21T11:49:12.243Z,3.90
2023-09-21T11:51:48.536Z,4.50
2023-09-21T11:54:20.996Z,4.00
2023-09-21T11:56:56.203Z,4.20
2023-09-21T11:59:28.478Z,4.90
2023-09-21T12:02:01.273Z,3.90
2023-09-21T12:04:34.522Z,4.10
2023-09-21T12:07:07.205Z,3.60
2023-09-21T12:09:42.198Z,3.80
2023-09-21T12:12:15.434Z,3.60
2023-09-21T12:14:47.430Z,3.90
2023-09-21T12:17:20.858Z,4.50
2023-09-21T12:19:54.390Z,4.70
2023-09-21T12:22:28.441Z,4.70
2023-09-21T12:25:03.419Z,4.40
2023-09-21T12:27:36.594Z,3.80
2023-09-21T12:30:13.418Z,3.70
2023-09-21T12:32:45.974Z,3.60
2023-09-21T12:35:22.041Z,3.30
2023-09-21T12:37:57.113Z,3.70
2023-09-21T12:40:29.433Z,3.90
2023-09-21T12:43:01.994Z,3.60
2023-09-21T12:45:34.763Z,3.50
2023-09-21T12:48:09.992Z,3.20
2023-09-21T12:50:42.200Z,3.40
2023-09-21T12:53:14.855Z,3.50
2023-09-21T12:55:48.172Z,3.00
2023-09-21T12:58:20.103Z,3.50
2023-09-21T13:00:53.969Z,3.20
2023-09-21T13:03:26.130Z,3.10
2023-09-21T13:05:58.471Z,3.10
2023-09-21T13:08:30.868Z,2.90
2023-09-21T13:11:04.820Z,3.00
2023-09-21T13:13:38.995Z,3.00
2023-09-21T13:16:12.274Z,3.10
2023-09-21T13:18:45.240Z,2.80
2023-09-21T13:21:19.778Z,3.00
2023-09-21T13:23:56.956Z,2.90
2023-09-21T13:26:29.633Z,2.70
2023-09-21T13:29:01.974Z,2.90
2023-09-21T13:31:34.246Z,2.60
2023-09-21T13:34:06.343Z,2.80
2023-09-21T13:36:38.337Z,2.90
2023-09-21T13:39:10.550Z,2.90
2023-09-21T13:41:42.756Z,2.80
2023-09-21T13:44:14.710Z,2.60
2023-09-21T13:46:46.474Z,3.00
2023-09-21T13:49:21.090Z,2.70
2023-09-21T13:51:53.390Z,2.70
2023-09-21T13:54:25.984Z,2.60
2023-09-21T13:56:57.962Z,2.90
2023-09-21T13:59:29.892Z,2.90
2023-09-21T14:02:02.196Z,2.60
2023-09-21T14:04:34.401Z,2.60
2023-09-21T14:07:06.484Z,3.00
2023-09-21T14:09:38.680Z,2.80
2023-09-21T14:12:10.843Z,3.30
2023-09-21T14:14:42.980Z,3.10
2023-09-21T14:17:15.244Z,3.10
2023-09-21T14:19:47.197Z,3.30
2023-09-21T14:22:19.333Z,3.20
2023-09-21T14:24:52.730Z,3.10
2023-09-21T14:27:25.706Z,3.00
2023-09-21T14:29:57.861Z,3.30
2023-09-21T14:32:30.436Z,2.50
2023-09-21T14:35:03.675Z,3.00
2023-09-21T14:37:37.911Z,3.10
2023-09-21T14:40:11.721Z,3.30
2023-09-21T14:42:45.639Z,2.90
2023-09-21T14:45:20.121Z,3.10
2023-09-21T14:47:54.504Z,3.10
2023-09-21T14:50:26.784Z,3.20
2023-09-21T14:52:58.672Z,2.90
2023-09-21T14:55:32.670Z,3.10
2023-09-21T14:58:05.107Z,2.90
2023-09-21T15:00:38.150Z,3.40
2023-09-21T15:03:10.341Z,2.90
2023-09-21T15:05:42.593Z,6.90
2023-09-21T15:08:14.517Z,24.80
2023-09-21T15:10:46.445Z,15.20
2023-09-21T15:13:19.144Z,5.40
2023-09-21T15:15:51.525Z,12.60
2023-09-21T15:18:25.107Z,16.00
2023-09-21T15:20:57.282Z,4.10
2023-09-21T15:23:29.520Z,3.40
2023-09-21T15:26:13.627Z,4.40
2023-09-21T15:28:51.381Z,4.90
2023-09-21T15:31:23.299Z,3.70
2023-09-21T15:33:55.521Z,3.00
2023-09-21T15:36:27.784Z,2.60
2023-09-21T15:38:59.920Z,2.60
2023-09-21T15:41:32.011Z,3.20
2023-09-21T15:44:04.155Z,2.60
2023-09-21T15:46:39.617Z,2.90
2023-09-21T15:49:11.814Z,2.80
2023-09-21T15:51:44.109Z,3.00
2023-09-21T15:54:16.518Z,2.80
2023-09-21T15:56:48.539Z,2.80
2023-09-21T15:59:20.764Z,2.80
2023-09-21T16:01:52.861Z,3.60
2023-09-21T16:04:24.846Z,5.20
2023-09-21T16:06:59.327Z,3.10
2023-09-21T16:09:31.268Z,3.20
2023-09-21T16:12:06.210Z,3.20
2023-09-21T16:14:38.154Z,3.30
2023-09-21T16:17:10.417Z,3.10
2023-09-21T16:19:42.245Z,3.60
2023-09-21T16:22:14.264Z,3.40
2023-09-21T16:24:47.234Z,3.60
2023-09-21T16:27:21.883Z,3.50
2023-09-21T16:29:53.922Z,3.20
2023-09-21T16:32:26.264Z,3.00
2023-09-21T16:34:58.686Z,3.70
2023-09-21T16:37:30.650Z,3.50
2023-09-21T16:40:05.910Z,3.40
2023-09-21T16:42:38.069Z,3.30
2023-09-21T16:45:12.580Z,3.20
2023-09-21T16:47:44.922Z,4.20
2023-09-21T16:50:16.844Z,4.00
2023-09-21T16:52:48.689Z,3.80
2023-09-21T16:55:20.809Z,3.90
2023-09-21T16:57:52.963Z,3.90
2023-09-21T17:00:25.655Z,3.60
2023-09-21T17:02:59.616Z,4.20
2023-09-21T17:05:33.904Z,4.40
2023-09-21T17:08:07.083Z,4.60
2023-09-21T17:10:39.208Z,4.60
2023-09-21T17:13:11.756Z,4.10
2023-09-21T17:15:43.888Z,4.10
2023-09-21T17:18:16.016Z,4.80
2023-09-21T17:20:48.240Z,4.70
2023-09-21T17:23:20.947Z,4.80
2023-09-21T17:25:53.168Z,4.90
2023-09-21T17:28:25.427Z,4.10
2023-09-21T17:30:57.304Z,4.10
2023-09-21T17:33:29.867Z,4.10
2023-09-21T17:36:02.691Z,4.10
2023-09-21T17:38:35.039Z,4.90
2023-09-21T17:41:07.631Z,5.10
2023-09-21T17:43:39.789Z,4.90
2023-09-21T17:46:11.830Z,4.80
2023-09-21T17:48:43.991Z,4.80
2023-09-21T17:51:16.293Z,5.10
2023-09-21T17:53:48.359Z,4.80
2023-09-21T17:56:20.282Z,5.20
2023-09-21T17:58:52.205Z,4.10
2023-09-21T18:01:27.227Z,4.80
2023-09-21T18:03:59.989Z,5.50
2023-09-21T18:06:32.008Z,4.50
2023-09-21T18:09:07.107Z,4.30
2023-09-21T18:11:39.714Z,4.20
2023-09-21T18:14:11.703Z,4.40
2023-09-21T18:16:44.665Z,4.40
2023-09-21T18:19:16.612Z,4.80
2023-09-21T18:21:48.662Z,3.90
2023-09-21T18:24:20.670Z,4.00
2023-09-21T18:26:52.650Z,4.00
2023-09-21T18:29:24.508Z,3.80
2023-09-21T18:31:56.442Z,4.00
2023-09-21T18:34:28.547Z,3.60
2023-09-21T18:37:00.351Z,3.90
2023-09-21T18:39:32.523Z,4.00
2023-09-21T18:42:04.814Z,4.00
2023-09-21T18:44:39.154Z,4.10
2023-09-21T18:47:11.454Z,4.10
2023-09-21T18:49:43.656Z,4.20
2023-09-21T18:52:15.581Z,4.00
2023-09-21T18:54:50.556Z,4.70
2023-09-21T18:57:22.647Z,4.00
2023-09-21T18:59:56.959Z,4.60
2023-09-21T19:02:29.768Z,5.00
2023-09-21T19:05:01.805Z,5.10
2023-09-21T19:07:34.073Z,4.70
2023-09-21T19:10:07.074Z,5.00
2023-09-21T19:12:39.193Z,4.10
2023-09-21T19:15:14.062Z,4.50
2023-09-21T19:17:47.204Z,4.30
2023-09-21T19:20:19.617Z,4.20
2023-09-21T19:22:51.753Z,4.30
2023-09-21T19:25:23.675Z,4.50
2023-09-21T19:27:55.499Z,4.50
2023-09-21T19:30:31.331Z,4.70
2023-09-21T19:33:03.395Z,4.30
2023-09-21T19:35:35.324Z,4.30
2023-09-21T19:38:07.462Z,4.50
2023-09-21T19:40:40.656Z,4.10
2023-09-21T19:43:12.791Z,4.10
2023-09-21T19:45:44.907Z,4.20
2023-09-21T19:48:17.461Z,4.30
2023-09-21T19:50:53.241Z,4.80
2023-09-21T19:53:25.597Z,4.20
2023-09-21T19:55:57.484Z,4.50
2023-09-21T19:58:29.720Z,4.60
2023-09-21T20:01:01.772Z,4.60
2023-09-21T20:03:33.930Z,4.50
2023-09-21T20:06:06.308Z,4.50
2023-09-21T20:08:38.451Z,4.70
2023-09-21T20:11:12.357Z,5.00
2023-09-21T20:13:45.012Z,4.60
2023-09-21T20:16:17.140Z,4.90
2023-09-21T20:18:50.047Z,4.90
2023-09-21T20:21:22.395Z,4.90
2023-09-21T20:23:54.324Z,4.80
2023-09-21T20:26:26.281Z,4.80
2023-09-21T20:28:58.118Z,4.70
2023-09-21T20:31:31.355Z,5.30
2023-09-21T20:34:04.060Z,5.70
2023-09-21T20:36:36.159Z,5.10
2023-09-21T20:39:08.517Z,5.30
2023-09-21T20:41:40.610Z,5.20
2023-09-21T20:44:17.559Z,5.30
2023-09-21T20:46:49.765Z,5.50
2023-09-21T20:49:22.531Z,5.50
2023-09-21T20:51:54.438Z,5.90
2023-09-21T20:54:26.951Z,6.00
2023-09-21T20:56:58.956Z,5.70
2023-09-21T20:59:33.336Z,5.50
2023-09-21T21:02:05.379Z,5.60
2023-09-21T21:04:37.774Z,5.60
2023-09-21T21:07:10.508Z,5.60
2023-09-21T21:09:42.633Z,5.90
2023-09-21T21:12:14.597Z,5.70
2023-09-21T21:14:46.532Z,6.10
2023-09-21T21:17:21.141Z,6.30
2023-09-21T21:19:53.103Z,6.00
2023-09-21T21:22:25.106Z,5.60
2023-09-21T21:24:59.105Z,5.60
2023-09-21T21:27:32.202Z,5.70
2023-09-21T21:30:05.395Z,5.80
2023-09-21T21:32:37.454Z,5.60
2023-09-21T21:35:16.266Z,6.20
2023-09-21T21:37:48.669Z,6.20
2023-09-21T21:40:20.941Z,5.90
2023-09-21T21:42:53.228Z,6.30
2023-09-21T21:45:26.202Z,6.30
2023-09-21T21:47:58.383Z,5.50
2023-09-21T21:50:30.680Z,6.30
2023-09-21T21:53:02.744Z,5.70
2023-09-21T21:55:36.096Z,6.20
2023-09-21T21:58:08.120Z,6.60
2023-09-21T22:00:40.901Z,6.30
2023-09-21T22:03:13.097Z,6.10
2023-09-21T22:05:45.973Z,6.60
2023-09-21T22:08:17.993Z,5.70
2023-09-21T22:10:50.385Z,6.10
2023-09-21T22:13:24.709Z,6.50
2023-09-21T22:15:56.648Z,6.60
2023-09-21T22:18:28.794Z,6.20
2023-09-21T22:21:01.254Z,6.20
2023-09-21T22:23:33.195Z,5.90
2023-09-21T22:26:11.261Z,6.30
2023-09-21T22:28:44.276Z,6.50
2023-09-21T22:31:17.109Z,6.50
2023-09-21T22:33:51.391Z,6.80
2023-09-21T22:36:24.411Z,6.40
2023-09-21T22:38:56.678Z,6.00
2023-09-21T22:41:28.965Z,6.30
2023-09-21T22:44:01.783Z,6.00
2023-09-21T22:46:34.511Z,6.60
2023-09-21T22:49:07.892Z,6.30
2023-09-21T22:51:39.798Z,6.80
2023-09-21T22:54:12.160Z,6.10
2023-09-21T22:56:44.629Z,6.40
2023-09-21T22:59:16.459Z,6.00
2023-09-21T23:01:48.502Z,5.90
2023-09-21T23:04:20.790Z,6.40
2023-09-21T23:06:52.843Z,6.20
2023-09-21T23:09:25.300Z,6.60
2023-09-21T23:11:58.605Z,6.30
2023-09-21T23:14:31.593Z,5.90
2023-09-21T23:17:03.887Z,6.70
2023-09-21T23:19:37.454Z,6.40
2023-09-21T23:22:09.482Z,6.30
2023-09-21T23:24:43.280Z,6.20
2023-09-21T23:27:15.253Z,6.40
2023-09-21T23:29:50.033Z,6.30
2023-09-21T23:32:21.882Z,6.40
2023-09-21T23:34:54.366Z,6.30
2023-09-21T23:37:26.608Z,6.40
2023-09-21T23:39:58.550Z,6.60
2023-09-21T23:42:30.679Z,6.40
2023-09-21T23:45:02.562Z,6.50
2023-09-21T23:47:34.749Z,6.00
2023-09-21T23:50:10.980Z,6.20
2023-09-21T23:52:45.791Z,6.60
2023-09-21T23:55:19.312Z,6.50
2023-09-21T23:57:51.451Z,6.80
